createdAt,value
2018-06-24T00:00:51.917Z,15.29
2018-06-24T00:03:21.014Z,15.32
2018-06-24T00:05:50.106Z,15.37
2018-06-24T00:08:19.205Z,15.26
2018-06-24T00:10:48.293Z,15.35
2018-06-24T00:13:17.377Z,15.26
2018-06-24T00:15:46.469Z,15.19
2018-06-24T00:18:15.548Z,15.08
2018-06-24T00:20:44.669Z,14.99
2018-06-24T00:23:13.782Z,15.12
2018-06-24T00:25:42.870Z,15.15
2018-06-24T00:28:11.981Z,15.21
2018-06-24T00:30:41.085Z,15.21
2018-06-24T00:33:10.282Z,15.21
2018-06-24T00:35:39.382Z,15.23
2018-06-24T00:38:08.538Z,15.22
2018-06-24T00:40:37.626Z,15.22
2018-06-24T00:43:06.799Z,14.82
2018-06-24T00:45:35.908Z,14.85
2018-06-24T00:48:05.018Z,14.96
2018-06-24T00:50:34.113Z,14.95
2018-06-24T00:53:03.238Z,14.91
2018-06-24T00:55:32.453Z,15.12
2018-06-24T00:58:01.682Z,15.16
2018-06-24T01:00:30.794Z,15.05
2018-06-24T01:02:59.881Z,15.14
2018-06-24T01:05:28.977Z,15.11
2018-06-24T01:07:58.054Z,15.10
2018-06-24T01:10:27.145Z,14.95
2018-06-24T01:12:56.225Z,15.16
2018-06-24T01:15:25.357Z,15.05
2018-06-24T01:17:54.441Z,14.88
2018-06-24T01:20:23.656Z,15.04
2018-06-24T01:22:52.773Z,15.05
2018-06-24T01:25:21.911Z,15.01
2018-06-24T01:27:51.003Z,15.08
2018-06-24T01:30:20.113Z,15.04
2018-06-24T01:32:49.197Z,15.07
2018-06-24T01:35:18.297Z,15.07
2018-06-24T01:37:47.380Z,15.03
2018-06-24T01:40:16.492Z,15.06
2018-06-24T01:42:45.596Z,15.02
2018-06-24T01:45:14.681Z,15.08
2018-06-24T01:47:43.773Z,15.13
2018-06-24T01:50:12.885Z,15.05
2018-06-24T01:52:41.993Z,15.05
2018-06-24T01:55:11.093Z,15.05
2018-06-24T01:57:40.193Z,14.85
2018-06-24T02:00:09.309Z,15.02
2018-06-24T02:02:38.418Z,14.76
2018-06-24T02:05:07.535Z,14.79
2018-06-24T02:07:36.653Z,14.96
2018-06-24T02:10:05.785Z,15.02
2018-06-24T02:12:34.881Z,15.12
2018-06-24T02:15:04.002Z,15.07
2018-06-24T02:17:33.105Z,14.81
2018-06-24T02:20:02.270Z,14.88
2018-06-24T02:22:31.398Z,14.91
2018-06-24T02:25:00.481Z,14.81
2018-06-24T02:27:29.593Z,14.95
2018-06-24T02:29:58.681Z,14.94
2018-06-24T02:32:27.781Z,14.81
2018-06-24T02:34:56.866Z,14.88
2018-06-24T02:37:25.958Z,14.50
2018-06-24T02:39:55.054Z,14.42
2018-06-24T02:42:24.211Z,14.31
2018-06-24T02:44:53.255Z,14.32
2018-06-24T02:47:22.360Z,14.33
2018-06-24T02:49:51.461Z,14.47
2018-06-24T02:52:20.566Z,14.59
2018-06-24T02:54:49.742Z,14.51
2018-06-24T02:57:18.834Z,14.59
2018-06-24T02:59:47.925Z,14.76
2018-06-24T03:02:17.058Z,14.78
2018-06-24T03:04:46.145Z,14.78
2018-06-24T03:07:15.233Z,14.89
2018-06-24T03:09:44.342Z,14.81
2018-06-24T03:12:13.437Z,14.83
2018-06-24T03:14:42.534Z,14.82
2018-06-24T03:17:11.628Z,14.77
2018-06-24T03:19:40.709Z,14.91
2018-06-24T03:22:10.257Z,14.86
2018-06-24T03:24:39.370Z,14.91
2018-06-24T03:27:08.477Z,14.91
2018-06-24T03:29:37.606Z,14.93
2018-06-24T03:32:06.770Z,14.75
2018-06-24T03:34:35.900Z,14.92
2018-06-24T03:37:05.028Z,14.87
2018-06-24T03:39:34.110Z,14.66
2018-06-24T03:42:03.325Z,14.71
2018-06-24T03:44:32.410Z,14.72
2018-06-24T03:47:01.509Z,14.66
2018-06-24T03:49:30.593Z,14.86
2018-06-24T03:51:59.701Z,14.82
2018-06-24T03:54:28.789Z,14.83
2018-06-24T03:56:57.881Z,14.86
2018-06-24T03:59:26.981Z,14.75
2018-06-24T04:01:56.093Z,14.72
2018-06-24T04:04:25.213Z,14.83
2018-06-24T04:06:54.310Z,14.76
2018-06-24T04:09:23.421Z,14.72
2018-06-24T04:11:52.512Z,14.50
2018-06-24T04:14:21.614Z,14.61
2018-06-24T04:16:50.721Z,14.65
2018-06-24T04:19:19.822Z,14.72
2018-06-24T04:21:48.909Z,14.72
2018-06-24T04:24:18.013Z,14.92
2018-06-24T04:26:47.101Z,14.83
2018-06-24T04:29:16.300Z,14.85
2018-06-24T04:31:45.382Z,14.82
2018-06-24T04:34:14.494Z,14.75
2018-06-24T04:36:43.608Z,14.87
2018-06-24T04:39:12.693Z,14.89
2018-06-24T04:41:41.851Z,14.89
2018-06-24T04:44:10.934Z,14.96
2018-06-24T04:46:40.113Z,15.02
2018-06-24T04:49:09.213Z,14.97
2018-06-24T04:51:38.372Z,15.03
2018-06-24T04:54:07.499Z,15.01
2018-06-24T04:56:36.614Z,15.14
2018-06-24T04:59:05.726Z,15.13
2018-06-24T05:01:35.097Z,15.15
2018-06-24T05:04:04.185Z,15.09
2018-06-24T05:06:33.343Z,15.01
2018-06-24T05:09:02.381Z,15.19
2018-06-24T05:11:31.481Z,15.12
2018-06-24T05:14:00.577Z,15.13
2018-06-24T05:16:29.679Z,15.17
2018-06-24T05:18:58.797Z,15.14
2018-06-24T05:21:27.917Z,15.30
2018-06-24T05:23:57.041Z,15.27
2018-06-24T05:26:26.118Z,15.39
2018-06-24T05:28:55.253Z,15.38
2018-06-24T05:31:24.370Z,15.45
2018-06-24T05:33:53.521Z,15.50
2018-06-24T05:36:22.618Z,15.71
2018-06-24T05:38:51.748Z,15.80
2018-06-24T05:41:20.834Z,15.75
2018-06-24T05:43:50.017Z,15.88
2018-06-24T05:46:19.188Z,15.97
2018-06-24T05:48:48.352Z,16.01
2018-06-24T05:51:17.389Z,16.07
2018-06-24T05:53:46.540Z,16.05
2018-06-24T05:56:15.754Z,16.06
2018-06-24T05:58:44.869Z,16.17
2018-06-24T06:01:13.969Z,16.11
2018-06-24T06:03:43.079Z,16.24
2018-06-24T06:06:12.193Z,16.12
2018-06-24T06:08:41.309Z,16.33
2018-06-24T06:11:10.473Z,16.44
2018-06-24T06:13:39.585Z,16.43
2018-06-24T06:16:08.901Z,16.41
2018-06-24T06:18:37.982Z,16.37
2018-06-24T06:21:07.199Z,16.50
2018-06-24T06:23:36.329Z,16.15
2018-06-24T06:26:05.526Z,16.33
2018-06-24T06:28:34.629Z,16.49
2018-06-24T06:31:03.745Z,16.30
2018-06-24T06:33:32.862Z,16.50
2018-06-24T06:36:01.958Z,16.71
2018-06-24T06:38:31.081Z,16.68
2018-06-24T06:41:00.220Z,16.76
2018-06-24T06:43:29.668Z,16.80
2018-06-24T06:45:58.900Z,16.77
2018-06-24T06:48:28.100Z,17.05
2018-06-24T06:50:57.310Z,17.18
2018-06-24T06:53:26.357Z,17.16
2018-06-24T06:55:55.584Z,17.27
2018-06-24T06:58:24.693Z,17.20
2018-06-24T07:00:53.827Z,17.15
2018-06-24T07:03:22.977Z,17.00
2018-06-24T07:05:52.063Z,17.07
2018-06-24T07:08:21.293Z,17.00
2018-06-24T07:10:50.461Z,17.12
2018-06-24T07:13:19.654Z,17.15
2018-06-24T07:15:48.789Z,17.67
2018-06-24T07:18:18.165Z,17.49
2018-06-24T07:20:47.334Z,17.50
2018-06-24T07:23:16.437Z,17.08
2018-06-24T07:25:45.646Z,17.07
2018-06-24T07:28:14.978Z,17.07
2018-06-24T07:30:44.252Z,17.00
2018-06-24T07:33:13.467Z,16.77
2018-06-24T07:35:42.550Z,17.08
2018-06-24T07:38:11.645Z,17.76
2018-06-24T07:40:41.817Z,18.84
2018-06-24T07:43:10.994Z,18.11
2018-06-24T07:45:40.129Z,18.65
2018-06-24T07:48:10.303Z,18.58
2018-06-24T07:50:39.409Z,19.00
2018-06-24T07:53:08.524Z,18.24
2018-06-24T07:55:37.626Z,18.32
2018-06-24T07:58:06.750Z,18.33
2018-06-24T08:00:35.865Z,17.99
2018-06-24T08:03:05.009Z,18.11
2018-06-24T08:05:34.163Z,18.33
2018-06-24T08:08:03.258Z,18.17
2018-06-24T08:10:32.506Z,17.99
2018-06-24T08:13:02.433Z,18.26
2018-06-24T08:15:31.561Z,18.57
2018-06-24T08:18:00.669Z,18.52
2018-06-24T08:20:29.770Z,18.36
2018-06-24T08:22:59.110Z,18.38
2018-06-24T08:25:28.233Z,18.28
2018-06-24T08:27:57.377Z,18.76
2018-06-24T08:30:26.514Z,18.95
2018-06-24T08:32:55.745Z,18.62
2018-06-24T08:35:24.863Z,18.53
2018-06-24T08:37:54.315Z,18.26
2018-06-24T08:40:23.470Z,18.45
2018-06-24T08:42:53.281Z,18.52
2018-06-24T08:45:22.401Z,18.65
2018-06-24T08:47:51.738Z,18.85
2018-06-24T08:50:20.917Z,18.78
2018-06-24T08:52:50.075Z,19.09
2018-06-24T08:55:19.367Z,18.99
2018-06-24T08:57:48.505Z,18.85
2018-06-24T09:00:17.748Z,18.60
2018-06-24T09:02:46.878Z,18.52
2018-06-24T09:05:16.045Z,18.57
2018-06-24T09:07:45.162Z,18.61
2018-06-24T09:10:14.282Z,18.81
2018-06-24T09:12:43.703Z,18.91
2018-06-24T09:15:12.861Z,18.89
2018-06-24T09:17:41.985Z,19.02
2018-06-24T09:20:11.124Z,18.99
2018-06-24T09:22:40.239Z,18.76
2018-06-24T09:25:15.482Z,18.72
2018-06-24T09:27:44.667Z,18.70
2018-06-24T09:30:13.739Z,18.57
2018-06-24T09:32:42.990Z,18.61
2018-06-24T09:35:12.087Z,18.43
2018-06-24T09:37:41.342Z,18.32
2018-06-24T09:40:10.467Z,18.33
2018-06-24T09:42:39.633Z,18.56
2018-06-24T09:45:08.725Z,18.54
2018-06-24T09:47:37.882Z,18.90
2018-06-24T09:50:07.266Z,18.77
2018-06-24T09:52:36.357Z,18.93
2018-06-24T09:55:06.839Z,18.84
2018-06-24T09:57:36.968Z,18.68
2018-06-24T10:00:11.696Z,18.71
2018-06-24T10:02:42.146Z,18.91
2018-06-24T10:05:11.355Z,18.90
2018-06-24T10:07:40.457Z,18.95
2018-06-24T10:10:09.763Z,19.10
2018-06-24T10:12:38.882Z,19.07
2018-06-24T10:15:08.800Z,18.82
2018-06-24T10:17:37.977Z,19.13
2018-06-24T10:20:07.300Z,19.27
2018-06-24T10:22:36.454Z,19.04
2018-06-24T10:25:06.371Z,19.13
2018-06-24T10:27:35.489Z,19.16
2018-06-24T10:30:05.078Z,19.39
2018-06-24T10:32:34.185Z,19.89
2018-06-24T10:35:03.337Z,20.02
2018-06-24T10:37:32.450Z,19.80
2018-06-24T10:40:01.564Z,19.66
2018-06-24T10:42:30.658Z,19.49
2018-06-24T10:44:59.835Z,19.42
2018-06-24T10:47:28.980Z,19.54
2018-06-24T10:49:58.122Z,19.77
2018-06-24T10:52:27.257Z,20.22
2018-06-24T10:54:56.446Z,19.58
2018-06-24T10:57:25.594Z,19.76
2018-06-24T10:59:54.773Z,19.95
2018-06-24T11:02:23.929Z,19.75
2018-06-24T11:04:53.034Z,19.93
2018-06-24T11:07:22.280Z,19.65
2018-06-24T11:09:51.448Z,19.52
2018-06-24T11:12:20.938Z,19.56
2018-06-24T11:14:50.043Z,19.91
2018-06-24T11:17:19.167Z,20.24
2018-06-24T11:19:48.277Z,20.18
2018-06-24T11:22:17.411Z,19.75
2018-06-24T11:24:46.521Z,19.78
2018-06-24T11:27:15.725Z,19.85
2018-06-24T11:29:44.809Z,20.09
2018-06-24T11:32:13.917Z,20.15
2018-06-24T11:34:43.025Z,20.65
2018-06-24T11:37:12.221Z,20.62
2018-06-24T11:39:41.330Z,19.98
2018-06-24T11:42:10.503Z,19.91
2018-06-24T11:44:39.593Z,19.92
2018-06-24T11:47:08.710Z,20.10
2018-06-24T11:49:37.846Z,19.77
2018-06-24T11:52:06.960Z,19.69
2018-06-24T11:54:36.141Z,19.60
2018-06-24T11:57:05.461Z,19.74
2018-06-24T11:59:34.593Z,19.73
2018-06-24T12:02:03.768Z,20.09
2018-06-24T12:04:32.883Z,20.48
2018-06-24T12:07:02.030Z,21.11
2018-06-24T12:09:31.164Z,20.82
2018-06-24T12:12:00.275Z,20.48
2018-06-24T12:14:29.409Z,21.07
2018-06-24T12:16:58.517Z,20.99
2018-06-24T12:19:29.417Z,20.31
2018-06-24T12:21:58.519Z,20.22
2018-06-24T12:24:27.657Z,20.18
2018-06-24T12:26:56.745Z,20.11
2018-06-24T12:29:25.886Z,20.43
2018-06-24T12:31:55.006Z,20.47
2018-06-24T12:34:24.138Z,21.07
2018-06-24T12:36:53.285Z,21.05
2018-06-24T12:39:22.389Z,21.14
2018-06-24T12:41:51.532Z,20.77
2018-06-24T12:44:20.620Z,20.70
2018-06-24T12:46:49.724Z,20.69
2018-06-24T12:49:18.901Z,20.71
2018-06-24T12:51:48.010Z,20.77
2018-06-24T12:54:17.141Z,20.91
2018-06-24T12:56:46.229Z,20.68
2018-06-24T12:59:15.911Z,20.72
2018-06-24T13:01:44.749Z,20.69
2018-06-24T13:04:13.846Z,20.54
2018-06-24T13:06:42.937Z,20.52
2018-06-24T13:09:12.026Z,21.10
2018-06-24T13:11:41.133Z,21.07
2018-06-24T13:14:10.275Z,21.24
2018-06-24T13:16:39.384Z,21.46
2018-06-24T13:19:08.482Z,21.53
2018-06-24T13:21:37.586Z,21.18
2018-06-24T13:24:06.711Z,21.01
2018-06-24T13:26:35.797Z,20.74
2018-06-24T13:29:05.330Z,21.02
2018-06-24T13:31:34.450Z,20.95
2018-06-24T13:34:03.550Z,21.21
2018-06-24T13:36:32.729Z,21.22
2018-06-24T13:39:01.850Z,20.88
2018-06-24T13:41:30.983Z,21.02
2018-06-24T13:44:00.082Z,20.89
2018-06-24T13:46:29.189Z,20.99
2018-06-24T13:48:58.293Z,20.98
2018-06-24T13:51:27.417Z,20.56
2018-06-24T13:53:56.554Z,20.66
2018-06-24T13:56:25.638Z,20.69
2018-06-24T13:58:55.274Z,20.89
2018-06-24T14:01:24.367Z,20.88
2018-06-24T14:03:53.570Z,20.88
2018-06-24T14:06:22.705Z,21.31
2018-06-24T14:08:51.801Z,21.37
2018-06-24T14:11:21.261Z,20.98
2018-06-24T14:13:50.374Z,20.83
2018-06-24T14:16:19.457Z,20.74
2018-06-24T14:18:48.577Z,20.65
2018-06-24T14:21:17.657Z,20.87
2018-06-24T14:23:46.826Z,20.75
2018-06-24T14:26:15.929Z,20.84
2018-06-24T14:28:45.074Z,20.92
2018-06-24T14:31:14.214Z,21.25
2018-06-24T14:33:43.333Z,20.91
2018-06-24T14:36:12.474Z,20.97
2018-06-24T14:38:41.995Z,20.77
2018-06-24T14:41:11.101Z,20.65
2018-06-24T14:43:40.206Z,20.71
2018-06-24T14:46:09.306Z,20.57
2018-06-24T14:48:38.687Z,20.63
2018-06-24T14:51:07.789Z,20.55
2018-06-24T14:53:36.890Z,20.75
2018-06-24T14:56:06.037Z,20.41
2018-06-24T14:58:35.141Z,20.72
2018-06-24T15:01:04.232Z,20.55
2018-06-24T15:03:34.561Z,20.67
2018-06-24T15:06:03.678Z,20.79
2018-06-24T15:08:32.793Z,20.79
2018-06-24T15:11:01.894Z,20.86
2018-06-24T15:13:30.995Z,20.67
2018-06-24T15:16:00.111Z,20.67
2018-06-24T15:18:29.235Z,20.57
2018-06-24T15:20:58.357Z,20.51
2018-06-24T15:23:27.505Z,20.39
2018-06-24T15:25:56.665Z,20.60
2018-06-24T15:28:25.798Z,20.41
2018-06-24T15:30:54.947Z,20.41
2018-06-24T15:33:24.050Z,20.30
2018-06-24T15:35:53.148Z,20.41
2018-06-24T15:38:22.297Z,20.40
2018-06-24T15:40:51.518Z,20.34
2018-06-24T15:43:21.849Z,20.13
2018-06-24T15:45:51.243Z,20.10
2018-06-24T15:48:20.368Z,19.98
2018-06-24T15:50:49.477Z,19.98
2018-06-24T15:53:18.602Z,20.04
2018-06-24T15:55:47.734Z,19.79
2018-06-24T15:58:16.902Z,19.84
2018-06-24T16:00:46.169Z,19.76
2018-06-24T16:03:15.278Z,19.80
2018-06-24T16:05:44.405Z,19.85
2018-06-24T16:08:13.518Z,19.76
2018-06-24T16:10:42.666Z,19.79
2018-06-24T16:13:11.781Z,19.73
2018-06-24T16:15:40.941Z,19.83
2018-06-24T16:18:10.070Z,19.58
2018-06-24T16:20:39.284Z,19.55
2018-06-24T16:23:08.326Z,19.66
2018-06-24T16:25:37.411Z,19.64
2018-06-24T16:28:06.961Z,19.68
2018-06-24T16:30:36.148Z,19.71
2018-06-24T16:33:05.245Z,19.49
2018-06-24T16:35:34.381Z,19.64
2018-06-24T16:38:03.509Z,19.77
2018-06-24T16:40:32.593Z,19.50
2018-06-24T16:43:01.937Z,19.50
2018-06-24T16:45:31.042Z,19.52
2018-06-24T16:48:00.159Z,19.55
2018-06-24T16:50:29.253Z,19.45
2018-06-24T16:52:58.341Z,19.53
2018-06-24T16:55:27.430Z,19.71
2018-06-24T16:57:56.539Z,19.42
2018-06-24T17:00:25.659Z,19.31
2018-06-24T17:02:54.753Z,19.42
2018-06-24T17:05:23.876Z,19.28
2018-06-24T17:07:52.949Z,19.21
2018-06-24T17:10:22.067Z,19.44
2018-06-24T17:12:51.266Z,19.30
2018-06-24T17:15:20.361Z,19.28
2018-06-24T17:17:49.454Z,19.27
2018-06-24T17:20:18.587Z,19.33
2018-06-24T17:22:47.698Z,19.42
2018-06-24T17:25:22.934Z,19.28
2018-06-24T17:27:52.049Z,19.16
2018-06-24T17:30:21.177Z,19.12
2018-06-24T17:32:50.297Z,19.18
2018-06-24T17:35:19.421Z,19.17
2018-06-24T17:37:48.529Z,19.27
2018-06-24T17:40:17.662Z,19.13
2018-06-24T17:42:46.763Z,19.06
2018-06-24T17:45:16.905Z,19.12
2018-06-24T17:47:46.007Z,19.15
2018-06-24T17:50:15.130Z,19.29
2018-06-24T17:52:44.221Z,19.25
2018-06-24T17:55:13.362Z,19.06
2018-06-24T17:57:42.473Z,19.03
2018-06-24T18:00:11.610Z,19.13
2018-06-24T18:02:40.713Z,19.26
2018-06-24T18:05:09.847Z,19.12
2018-06-24T18:07:38.965Z,18.90
2018-06-24T18:10:08.124Z,18.95
2018-06-24T18:12:37.233Z,18.74
2018-06-24T18:15:06.433Z,18.71
2018-06-24T18:17:35.579Z,18.63
2018-06-24T18:20:04.753Z,18.50
2018-06-24T18:22:33.901Z,18.53
2018-06-24T18:25:02.945Z,18.50
2018-06-24T18:27:32.162Z,18.58
2018-06-24T18:30:01.258Z,18.65
2018-06-24T18:32:30.337Z,18.56
2018-06-24T18:34:59.434Z,18.64
2018-06-24T18:37:28.674Z,18.48
2018-06-24T18:39:57.818Z,18.42
2018-06-24T18:42:26.950Z,18.41
2018-06-24T18:44:56.049Z,18.39
2018-06-24T18:47:25.218Z,18.43
2018-06-24T18:49:54.314Z,18.32
2018-06-24T18:52:23.422Z,18.39
2018-06-24T18:54:52.546Z,18.38
2018-06-24T18:57:21.790Z,18.34
2018-06-24T18:59:50.941Z,18.42
2018-06-24T19:02:20.081Z,18.28
2018-06-24T19:04:49.174Z,18.31
2018-06-24T19:07:18.277Z,18.37
2018-06-24T19:09:47.432Z,18.23
2018-06-24T19:12:16.513Z,18.20
2018-06-24T19:14:46.686Z,18.30
2018-06-24T19:17:15.798Z,18.41
2018-06-24T19:19:44.946Z,18.34
2018-06-24T19:22:14.102Z,18.37
2018-06-24T19:24:43.198Z,18.15
2018-06-24T19:27:12.406Z,18.13
2018-06-24T19:29:41.510Z,18.09
2018-06-24T19:32:10.686Z,18.16
2018-06-24T19:34:39.795Z,18.00
2018-06-24T19:37:08.898Z,18.01
2018-06-24T19:39:37.986Z,18.05
2018-06-24T19:42:07.126Z,17.98
2018-06-24T19:44:36.241Z,17.89
2018-06-24T19:47:05.350Z,17.75
2018-06-24T19:49:34.437Z,17.90
2018-06-24T19:52:03.651Z,17.73
2018-06-24T19:54:32.858Z,17.70
2018-06-24T19:57:02.106Z,17.50
2018-06-24T19:59:31.196Z,17.73
2018-06-24T20:02:00.327Z,17.66
2018-06-24T20:04:29.530Z,17.68
2018-06-24T20:06:58.637Z,17.63
2018-06-24T20:09:27.809Z,17.79
2018-06-24T20:11:56.855Z,17.78
2018-06-24T20:14:25.957Z,17.64
2018-06-24T20:16:55.079Z,17.83
2018-06-24T20:19:24.182Z,17.70
2018-06-24T20:21:53.329Z,17.73
2018-06-24T20:24:22.426Z,17.76
2018-06-24T20:26:51.536Z,17.76
2018-06-24T20:29:20.670Z,17.64
2018-06-24T20:31:49.742Z,17.75
2018-06-24T20:34:18.961Z,17.74
2018-06-24T20:36:48.073Z,17.89
2018-06-24T20:39:17.225Z,17.92
2018-06-24T20:41:46.350Z,17.81
2018-06-24T20:44:15.453Z,17.80
2018-06-24T20:46:44.598Z,17.73
2018-06-24T20:49:14.878Z,17.74
2018-06-24T20:51:44.513Z,17.85
2018-06-24T20:54:13.628Z,17.83
2018-06-24T20:56:42.762Z,17.80
2018-06-24T20:59:12.061Z,17.61
2018-06-24T21:01:41.233Z,17.64
2018-06-24T21:04:10.412Z,17.80
2018-06-24T21:06:39.567Z,17.78
2018-06-24T21:09:10.181Z,17.66
2018-06-24T21:11:39.583Z,17.43
2018-06-24T21:14:08.711Z,17.55
2018-06-24T21:16:37.828Z,17.58
2018-06-24T21:19:06.925Z,17.63
2018-06-24T21:21:36.013Z,17.75
2018-06-24T21:24:05.141Z,17.72
2018-06-24T21:26:34.225Z,17.64
2018-06-24T21:29:03.391Z,17.77
2018-06-24T21:31:32.578Z,17.77
2018-06-24T21:34:01.674Z,17.85
2018-06-24T21:36:30.758Z,17.79
2018-06-24T21:38:59.905Z,17.78
2018-06-24T21:41:29.030Z,17.76
2018-06-24T21:43:58.137Z,17.77
2018-06-24T21:46:27.257Z,17.70
2018-06-24T21:48:56.422Z,17.51
2018-06-24T21:51:25.517Z,17.51
2018-06-24T21:53:54.678Z,17.69
2018-06-24T21:56:23.957Z,17.70
2018-06-24T21:58:53.962Z,17.61
2018-06-24T22:01:23.070Z,17.66
2018-06-24T22:03:52.201Z,17.74
2018-06-24T22:06:21.318Z,17.66
2018-06-24T22:08:50.431Z,17.74
2018-06-24T22:11:19.530Z,17.58
2018-06-24T22:13:48.610Z,17.46
2018-06-24T22:16:17.714Z,17.34
2018-06-24T22:18:46.817Z,17.34
2018-06-24T22:21:15.929Z,17.44
2018-06-24T22:23:45.061Z,17.42
2018-06-24T22:26:14.267Z,17.18
2018-06-24T22:28:43.346Z,17.08
2018-06-24T22:31:12.465Z,17.00
2018-06-24T22:33:41.584Z,16.91
2018-06-24T22:36:10.711Z,16.90
2018-06-24T22:38:39.882Z,16.86
2018-06-24T22:41:08.978Z,16.82
2018-06-24T22:43:38.117Z,16.72
2018-06-24T22:46:07.237Z,16.70
2018-06-24T22:48:36.337Z,16.61
2018-06-24T22:51:05.453Z,16.79
2018-06-24T22:53:34.566Z,16.63
2018-06-24T22:56:03.681Z,16.74
2018-06-24T22:58:32.769Z,16.67
2018-06-24T23:01:01.958Z,16.85
2018-06-24T23:03:30.733Z,16.80
2018-06-24T23:05:59.823Z,16.77
2018-06-24T23:08:28.998Z,16.73
2018-06-24T23:10:58.125Z,16.72
2018-06-24T23:13:27.280Z,16.76
2018-06-24T23:15:56.375Z,16.57
2018-06-24T23:18:25.493Z,16.55
2018-06-24T23:20:54.577Z,16.81
2018-06-24T23:23:23.686Z,16.86
2018-06-24T23:25:52.778Z,16.76
2018-06-24T23:28:21.881Z,16.69
2018-06-24T23:30:50.993Z,16.49
2018-06-24T23:33:20.076Z,16.62
2018-06-24T23:35:49.169Z,16.70
2018-06-24T23:38:18.253Z,16.75
2018-06-24T23:40:47.345Z,16.53
2018-06-24T23:43:16.433Z,16.63
2018-06-24T23:45:45.535Z,16.55
2018-06-24T23:48:14.678Z,16.57
2018-06-24T23:50:43.833Z,16.56
2018-06-24T23:53:12.965Z,16.57
2018-06-24T23:55:42.065Z,16.65
2018-06-24T23:58:11.262Z,16.40
